sensor_id;sensor_type;location;lat;lon;timestamp;P1;durP1;ratioP1;P2;durP2;ratioP2
14076;SDS011;7114;51.100;13.998;2023-06-14T00:01:04;5.95;;;2.13;;
14076;SDS011;7114;51.100;13.998;2023-06-14T00:03:31;6.25;;;2.15;;
14076;SDS011;7114;51.100;13.998;2023-06-14T00:05:57;5.93;;;2.08;;
14076;SDS011;7114;51.100;13.998;2023-06-14T00:08:24;5.90;;;2.00;;
14076;SDS011;7114;51.100;13.998;2023-06-14T00:10:52;6.07;;;2.17;;
14076;SDS011;7114;51.100;13.998;2023-06-14T00:13:18;6.35;;;2.28;;
14076;SDS011;7114;51.100;13.998;2023-06-14T00:15:45;6.80;;;2.28;;
14076;SDS011;7114;51.100;13.998;2023-06-14T00:18:12;5.68;;;2.10;;
14076;SDS011;7114;51.100;13.998;2023-06-14T00:20:39;7.77;;;2.37;;
14076;SDS011;7114;51.100;13.998;2023-06-14T00:23:06;6.53;;;2.50;;
14076;SDS011;7114;51.100;13.998;2023-06-14T00:25:33;7.75;;;2.42;;
14076;SDS011;7114;51.100;13.998;2023-06-14T00:28:00;7.18;;;2.53;;
14076;SDS011;7114;51.100;13.998;2023-06-14T00:30:27;8.35;;;2.30;;
14076;SDS011;7114;51.100;13.998;2023-06-14T00:32:55;6.03;;;2.23;;
14076;SDS011;7114;51.100;13.998;2023-06-14T00:35:22;6.20;;;2.45;;
14076;SDS011;7114;51.100;13.998;2023-06-14T00:37:48;7.53;;;2.42;;
14076;SDS011;7114;51.100;13.998;2023-06-14T00:40:14;6.97;;;2.40;;
14076;SDS011;7114;51.100;13.998;2023-06-14T00:42:40;7.35;;;2.50;;
14076;SDS011;7114;51.100;13.998;2023-06-14T00:45:09;7.07;;;2.40;;
14076;SDS011;7114;51.100;13.998;2023-06-14T00:47:36;7.63;;;2.63;;
14076;SDS011;7114;51.100;13.998;2023-06-14T00:50:02;6.50;;;2.50;;
14076;SDS011;7114;51.100;13.998;2023-06-14T00:52:29;7.60;;;2.60;;
14076;SDS011;7114;51.100;13.998;2023-06-14T00:54:57;7.10;;;2.58;;
14076;SDS011;7114;51.100;13.998;2023-06-14T00:57:23;6.93;;;2.63;;
14076;SDS011;7114;51.100;13.998;2023-06-14T00:59:50;6.95;;;2.50;;
14076;SDS011;7114;51.100;13.998;2023-06-14T01:02:17;7.38;;;2.60;;
14076;SDS011;7114;51.100;13.998;2023-06-14T01:04:45;7.63;;;2.40;;
14076;SDS011;7114;51.100;13.998;2023-06-14T01:07:15;8.35;;;2.63;;
14076;SDS011;7114;51.100;13.998;2023-06-14T01:09:48;7.17;;;2.80;;
14076;SDS011;7114;51.100;13.998;2023-06-14T01:12:23;7.10;;;2.78;;
14076;SDS011;7114;51.100;13.998;2023-06-14T01:14:51;6.65;;;2.60;;
14076;SDS011;7114;51.100;13.998;2023-06-14T01:17:18;7.30;;;2.70;;
14076;SDS011;7114;51.100;13.998;2023-06-14T01:19:46;7.75;;;2.83;;
14076;SDS011;7114;51.100;13.998;2023-06-14T01:22:12;6.43;;;2.70;;
14076;SDS011;7114;51.100;13.998;2023-06-14T01:24:40;6.55;;;2.80;;
14076;SDS011;7114;51.100;13.998;2023-06-14T01:27:09;7.30;;;2.80;;
14076;SDS011;7114;51.100;13.998;2023-06-14T01:29:37;7.53;;;3.00;;
14076;SDS011;7114;51.100;13.998;2023-06-14T01:32:04;7.35;;;2.75;;
14076;SDS011;7114;51.100;13.998;2023-06-14T01:34:31;7.30;;;2.70;;
14076;SDS011;7114;51.100;13.998;2023-06-14T01:36:57;9.20;;;2.78;;
14076;SDS011;7114;51.100;13.998;2023-06-14T01:39:26;6.97;;;3.00;;
14076;SDS011;7114;51.100;13.998;2023-06-14T01:41:53;7.03;;;2.83;;
14076;SDS011;7114;51.100;13.998;2023-06-14T01:44:20;7.18;;;2.80;;
14076;SDS011;7114;51.100;13.998;2023-06-14T01:46:47;6.90;;;3.00;;
14076;SDS011;7114;51.100;13.998;2023-06-14T01:49:14;9.43;;;3.03;;
14076;SDS011;7114;51.100;13.998;2023-06-14T01:51:40;7.18;;;3.00;;
14076;SDS011;7114;51.100;13.998;2023-06-14T01:54:06;9.20;;;3.20;;
14076;SDS011;7114;51.100;13.998;2023-06-14T01:56:33;8.02;;;3.28;;
14076;SDS011;7114;51.100;13.998;2023-06-14T01:59:00;7.40;;;3.20;;
14076;SDS011;7114;51.100;13.998;2023-06-14T02:01:26;7.57;;;3.33;;
14076;SDS011;7114;51.100;13.998;2023-06-14T02:03:53;8.35;;;3.15;;
14076;SDS011;7114;51.100;13.998;2023-06-14T02:06:19;8.32;;;2.92;;
14076;SDS011;7114;51.100;13.998;2023-06-14T02:08:46;7.30;;;3.22;;
14076;SDS011;7114;51.100;13.998;2023-06-14T02:11:12;7.43;;;3.37;;
14076;SDS011;7114;51.100;13.998;2023-06-14T02:13:38;8.10;;;3.22;;
14076;SDS011;7114;51.100;13.998;2023-06-14T02:16:06;7.88;;;3.45;;
14076;SDS011;7114;51.100;13.998;2023-06-14T02:18:32;8.55;;;3.40;;
14076;SDS011;7114;51.100;13.998;2023-06-14T02:20:58;9.25;;;3.33;;
14076;SDS011;7114;51.100;13.998;2023-06-14T02:23:25;8.57;;;3.60;;
14076;SDS011;7114;51.100;13.998;2023-06-14T02:25:51;9.20;;;3.83;;
14076;SDS011;7114;51.100;13.998;2023-06-14T02:28:17;8.95;;;3.40;;
14076;SDS011;7114;51.100;13.998;2023-06-14T02:30:44;8.55;;;3.50;;
14076;SDS011;7114;51.100;13.998;2023-06-14T02:33:11;7.53;;;3.65;;
14076;SDS011;7114;51.100;13.998;2023-06-14T02:35:38;8.20;;;3.43;;
14076;SDS011;7114;51.100;13.998;2023-06-14T02:38:04;7.72;;;3.45;;
14076;SDS011;7114;51.100;13.998;2023-06-14T02:40:30;8.05;;;3.92;;
14076;SDS011;7114;51.100;13.998;2023-06-14T02:42:56;8.25;;;3.67;;
14076;SDS011;7114;51.100;13.998;2023-06-14T02:45:23;9.57;;;4.10;;
14076;SDS011;7114;51.100;13.998;2023-06-14T02:47:50;7.70;;;3.60;;
14076;SDS011;7114;51.100;13.998;2023-06-14T02:50:17;8.20;;;3.55;;
14076;SDS011;7114;51.100;13.998;2023-06-14T02:52:44;10.15;;;3.90;;
14076;SDS011;7114;51.100;13.998;2023-06-14T02:55:10;7.93;;;3.60;;
14076;SDS011;7114;51.100;13.998;2023-06-14T02:57:36;8.60;;;3.92;;
14076;SDS011;7114;51.100;13.998;2023-06-14T03:00:03;9.20;;;4.00;;
14076;SDS011;7114;51.100;13.998;2023-06-14T03:02:30;8.48;;;3.97;;
14076;SDS011;7114;51.100;13.998;2023-06-14T03:04:56;8.25;;;3.80;;
14076;SDS011;7114;51.100;13.998;2023-06-14T03:07:27;9.15;;;3.60;;
14076;SDS011;7114;51.100;13.998;2023-06-14T03:09:54;9.55;;;4.00;;
14076;SDS011;7114;51.100;13.998;2023-06-14T03:12:21;8.40;;;3.67;;
14076;SDS011;7114;51.100;13.998;2023-06-14T03:14:48;8.85;;;3.97;;
14076;SDS011;7114;51.100;13.998;2023-06-14T03:17:15;8.60;;;4.10;;
14076;SDS011;7114;51.100;13.998;2023-06-14T03:19:42;8.73;;;3.45;;
14076;SDS011;7114;51.100;13.998;2023-06-14T03:22:08;9.63;;;3.67;;
14076;SDS011;7114;51.100;13.998;2023-06-14T03:24:38;9.00;;;3.80;;
14076;SDS011;7114;51.100;13.998;2023-06-14T03:27:04;10.10;;;4.00;;
14076;SDS011;7114;51.100;13.998;2023-06-14T03:29:31;8.60;;;4.00;;
14076;SDS011;7114;51.100;13.998;2023-06-14T03:31:57;9.23;;;4.00;;
14076;SDS011;7114;51.100;13.998;2023-06-14T03:34:24;7.82;;;3.50;;
14076;SDS011;7114;51.100;13.998;2023-06-14T03:36:51;8.63;;;4.00;;
14076;SDS011;7114;51.100;13.998;2023-06-14T03:39:17;9.13;;;3.67;;
14076;SDS011;7114;51.100;13.998;2023-06-14T03:41:45;8.48;;;4.10;;
14076;SDS011;7114;51.100;13.998;2023-06-14T03:44:13;8.68;;;4.03;;
14076;SDS011;7114;51.100;13.998;2023-06-14T03:46:41;8.70;;;4.22;;
14076;SDS011;7114;51.100;13.998;2023-06-14T03:49:07;10.93;;;4.57;;
14076;SDS011;7114;51.100;13.998;2023-06-14T03:51:33;8.57;;;4.10;;
14076;SDS011;7114;51.100;13.998;2023-06-14T03:54:00;10.38;;;4.45;;
14076;SDS011;7114;51.100;13.998;2023-06-14T03:56:26;8.88;;;4.38;;
14076;SDS011;7114;51.100;13.998;2023-06-14T03:58:54;9.77;;;4.50;;
14076;SDS011;7114;51.100;13.998;2023-06-14T04:01:21;9.07;;;4.33;;
14076;SDS011;7114;51.100;13.998;2023-06-14T04:03:50;9.15;;;4.20;;
14076;SDS011;7114;51.100;13.998;2023-06-14T04:06:16;9.38;;;4.40;;
14076;SDS011;7114;51.100;13.998;2023-06-14T04:08:44;8.95;;;4.55;;
14076;SDS011;7114;51.100;13.998;2023-06-14T04:11:11;10.85;;;5.10;;
14076;SDS011;7114;51.100;13.998;2023-06-14T04:13:37;8.90;;;4.40;;
14076;SDS011;7114;51.100;13.998;2023-06-14T04:16:05;9.98;;;4.60;;
14076;SDS011;7114;51.100;13.998;2023-06-14T04:18:32;9.77;;;4.43;;
14076;SDS011;7114;51.100;13.998;2023-06-14T04:20:58;8.98;;;4.50;;
14076;SDS011;7114;51.100;13.998;2023-06-14T04:23:25;9.77;;;4.45;;
14076;SDS011;7114;51.100;13.998;2023-06-14T04:25:53;8.80;;;4.57;;
14076;SDS011;7114;51.100;13.998;2023-06-14T04:28:19;9.50;;;4.55;;
14076;SDS011;7114;51.100;13.998;2023-06-14T04:30:50;9.15;;;4.80;;
14076;SDS011;7114;51.100;13.998;2023-06-14T04:33:19;9.60;;;4.70;;
14076;SDS011;7114;51.100;13.998;2023-06-14T04:35:46;9.57;;;4.50;;
14076;SDS011;7114;51.100;13.998;2023-06-14T04:38:13;8.57;;;4.33;;
14076;SDS011;7114;51.100;13.998;2023-06-14T04:40:41;10.50;;;4.72;;
14076;SDS011;7114;51.100;13.998;2023-06-14T04:43:09;10.35;;;5.63;;
14076;SDS011;7114;51.100;13.998;2023-06-14T04:45:37;8.68;;;4.38;;
14076;SDS011;7114;51.100;13.998;2023-06-14T04:48:05;9.70;;;4.93;;
14076;SDS011;7114;51.100;13.998;2023-06-14T04:50:32;10.20;;;4.60;;
14076;SDS011;7114;51.100;13.998;2023-06-14T04:53:00;8.88;;;4.47;;
14076;SDS011;7114;51.100;13.998;2023-06-14T04:55:26;12.00;;;4.95;;
14076;SDS011;7114;51.100;13.998;2023-06-14T04:57:52;10.25;;;4.63;;
14076;SDS011;7114;51.100;13.998;2023-06-14T05:00:19;10.90;;;4.85;;
14076;SDS011;7114;51.100;13.998;2023-06-14T05:02:46;10.87;;;4.77;;
14076;SDS011;7114;51.100;13.998;2023-06-14T05:05:14;11.10;;;4.90;;
14076;SDS011;7114;51.100;13.998;2023-06-14T05:07:42;9.65;;;5.15;;
14076;SDS011;7114;51.100;13.998;2023-06-14T05:10:08;8.57;;;4.28;;
14076;SDS011;7114;51.100;13.998;2023-06-14T05:12:35;8.43;;;4.43;;
14076;SDS011;7114;51.100;13.998;2023-06-14T05:15:01;8.93;;;4.60;;
14076;SDS011;7114;51.100;13.998;2023-06-14T05:17:28;8.95;;;4.45;;
14076;SDS011;7114;51.100;13.998;2023-06-14T05:19:54;8.73;;;4.00;;
14076;SDS011;7114;51.100;13.998;2023-06-14T05:22:21;10.35;;;4.60;;
14076;SDS011;7114;51.100;13.998;2023-06-14T05:24:49;9.05;;;4.70;;
14076;SDS011;7114;51.100;13.998;2023-06-14T05:27:16;8.37;;;3.97;;
14076;SDS011;7114;51.100;13.998;2023-06-14T05:29:42;9.43;;;4.60;;
14076;SDS011;7114;51.100;13.998;2023-06-14T05:32:08;8.75;;;3.90;;
14076;SDS011;7114;51.100;13.998;2023-06-14T05:34:35;8.20;;;3.90;;
14076;SDS011;7114;51.100;13.998;2023-06-14T05:37:01;8.02;;;4.28;;
14076;SDS011;7114;51.100;13.998;2023-06-14T05:39:29;8.47;;;3.80;;
14076;SDS011;7114;51.100;13.998;2023-06-14T05:41:56;8.35;;;3.50;;
14076;SDS011;7114;51.100;13.998;2023-06-14T05:44:23;8.07;;;3.63;;
14076;SDS011;7114;51.100;13.998;2023-06-14T05:46:49;7.95;;;4.00;;
14076;SDS011;7114;51.100;13.998;2023-06-14T05:49:15;7.60;;;3.95;;
14076;SDS011;7114;51.100;13.998;2023-06-14T05:51:42;7.70;;;4.03;;
14076;SDS011;7114;51.100;13.998;2023-06-14T05:54:08;8.93;;;4.35;;
14076;SDS011;7114;51.100;13.998;2023-06-14T05:56:34;7.07;;;3.30;;
14076;SDS011;7114;51.100;13.998;2023-06-14T05:59:02;9.77;;;4.03;;
14076;SDS011;7114;51.100;13.998;2023-06-14T06:01:28;10.77;;;3.90;;
14076;SDS011;7114;51.100;13.998;2023-06-14T06:03:55;9.40;;;3.87;;
14076;SDS011;7114;51.100;13.998;2023-06-14T06:06:21;8.25;;;3.75;;
14076;SDS011;7114;51.100;13.998;2023-06-14T06:08:48;7.15;;;3.33;;
14076;SDS011;7114;51.100;13.998;2023-06-14T06:11:14;7.47;;;3.92;;
14076;SDS011;7114;51.100;13.998;2023-06-14T06:13:41;7.68;;;3.72;;
14076;SDS011;7114;51.100;13.998;2023-06-14T06:16:08;8.47;;;4.00;;
14076;SDS011;7114;51.100;13.998;2023-06-14T06:18:35;8.05;;;3.78;;
14076;SDS011;7114;51.100;13.998;2023-06-14T06:21:01;9.13;;;4.18;;
14076;SDS011;7114;51.100;13.998;2023-06-14T06:23:28;7.93;;;3.78;;
14076;SDS011;7114;51.100;13.998;2023-06-14T06:25:54;8.55;;;3.90;;
14076;SDS011;7114;51.100;13.998;2023-06-14T06:28:20;9.47;;;3.80;;
14076;SDS011;7114;51.100;13.998;2023-06-14T06:30:47;8.20;;;3.58;;
14076;SDS011;7114;51.100;13.998;2023-06-14T06:33:15;8.35;;;3.88;;
14076;SDS011;7114;51.100;13.998;2023-06-14T06:35:41;7.50;;;3.58;;
14076;SDS011;7114;51.100;13.998;2023-06-14T06:38:07;6.30;;;3.13;;
14076;SDS011;7114;51.100;13.998;2023-06-14T06:40:35;6.03;;;2.63;;
14076;SDS011;7114;51.100;13.998;2023-06-14T06:43:01;7.18;;;3.10;;
14076;SDS011;7114;51.100;13.998;2023-06-14T06:45:27;7.03;;;3.25;;
14076;SDS011;7114;51.100;13.998;2023-06-14T06:47:54;8.75;;;3.42;;
14076;SDS011;7114;51.100;13.998;2023-06-14T06:50:21;7.68;;;3.38;;
14076;SDS011;7114;51.100;13.998;2023-06-14T06:52:49;8.07;;;3.00;;
14076;SDS011;7114;51.100;13.998;2023-06-14T06:55:16;6.97;;;3.45;;
14076;SDS011;7114;51.100;13.998;2023-06-14T06:57:43;7.25;;;3.35;;
14076;SDS011;7114;51.100;13.998;2023-06-14T07:00:10;6.70;;;3.20;;
14076;SDS011;7114;51.100;13.998;2023-06-14T07:02:37;6.78;;;3.05;;
14076;SDS011;7114;51.100;13.998;2023-06-14T07:05:04;7.30;;;3.47;;
14076;SDS011;7114;51.100;13.998;2023-06-14T07:07:32;6.00;;;2.65;;
14076;SDS011;7114;51.100;13.998;2023-06-14T07:10:00;6.82;;;2.70;;
14076;SDS011;7114;51.100;13.998;2023-06-14T07:12:29;7.68;;;3.00;;
14076;SDS011;7114;51.100;13.998;2023-06-14T07:14:56;6.97;;;3.30;;
14076;SDS011;7114;51.100;13.998;2023-06-14T07:17:23;6.07;;;2.97;;
14076;SDS011;7114;51.100;13.998;2023-06-14T07:19:49;6.70;;;2.97;;
14076;SDS011;7114;51.100;13.998;2023-06-14T07:22:16;7.38;;;3.10;;
14076;SDS011;7114;51.100;13.998;2023-06-14T07:24:43;5.93;;;2.75;;
14076;SDS011;7114;51.100;13.998;2023-06-14T07:27:10;6.00;;;2.50;;
14076;SDS011;7114;51.100;13.998;2023-06-14T07:29:38;5.70;;;2.50;;
14076;SDS011;7114;51.100;13.998;2023-06-14T07:32:04;5.93;;;2.60;;
14076;SDS011;7114;51.100;13.998;2023-06-14T07:34:32;5.82;;;2.50;;
14076;SDS011;7114;51.100;13.998;2023-06-14T07:36:58;5.72;;;2.50;;
14076;SDS011;7114;51.100;13.998;2023-06-14T07:39:24;6.95;;;2.40;;
14076;SDS011;7114;51.100;13.998;2023-06-14T07:41:52;5.50;;;2.37;;
14076;SDS011;7114;51.100;13.998;2023-06-14T07:44:18;6.40;;;2.80;;
14076;SDS011;7114;51.100;13.998;2023-06-14T07:46:44;6.32;;;2.55;;
14076;SDS011;7114;51.100;13.998;2023-06-14T07:49:14;5.55;;;2.50;;
14076;SDS011;7114;51.100;13.998;2023-06-14T07:51:40;6.30;;;3.00;;
14076;SDS011;7114;51.100;13.998;2023-06-14T07:54:08;5.40;;;2.60;;
14076;SDS011;7114;51.100;13.998;2023-06-14T07:56:34;6.45;;;2.60;;
14076;SDS011;7114;51.100;13.998;2023-06-14T07:59:02;6.50;;;2.47;;
14076;SDS011;7114;51.100;13.998;2023-06-14T08:01:28;5.25;;;2.40;;
14076;SDS011;7114;51.100;13.998;2023-06-14T08:03:54;6.03;;;2.33;;
14076;SDS011;7114;51.100;13.998;2023-06-14T08:06:21;5.20;;;2.23;;
14076;SDS011;7114;51.100;13.998;2023-06-14T08:08:47;6.82;;;2.92;;
14076;SDS011;7114;51.100;13.998;2023-06-14T08:11:13;6.43;;;2.70;;
14076;SDS011;7114;51.100;13.998;2023-06-14T08:13:39;8.98;;;2.78;;
14076;SDS011;7114;51.100;13.998;2023-06-14T08:16:07;5.70;;;2.53;;
14076;SDS011;7114;51.100;13.998;2023-06-14T08:18:33;7.20;;;2.80;;
14076;SDS011;7114;51.100;13.998;2023-06-14T08:20:59;5.50;;;2.42;;
14076;SDS011;7114;51.100;13.998;2023-06-14T08:23:26;5.88;;;2.88;;
14076;SDS011;7114;51.100;13.998;2023-06-14T08:25:52;7.15;;;2.45;;
14076;SDS011;7114;51.100;13.998;2023-06-14T08:28:18;5.72;;;2.30;;
14076;SDS011;7114;51.100;13.998;2023-06-14T08:30:44;5.50;;;2.60;;
14076;SDS011;7114;51.100;13.998;2023-06-14T08:33:12;5.57;;;2.20;;
